createdAt,value
2022-07-29T00:04:14.265Z,17.60
2022-07-29T00:06:41.817Z,17.50
2022-07-29T00:09:09.181Z,17.20
2022-07-29T00:14:03.519Z,17.60
2022-07-29T00:16:30.644Z,17.50
2022-07-29T00:19:00.617Z,17.70
2022-07-29T00:23:56.698Z,17.50
2022-07-29T00:26:23.658Z,17.20
2022-07-29T00:28:50.549Z,17.70
2022-07-29T00:33:44.848Z,17.50
2022-07-29T00:36:11.746Z,16.80
2022-07-29T00:38:38.725Z,17.00
2022-07-29T00:48:27.428Z,17.00
2022-07-29T00:50:54.721Z,17.10
2022-07-29T00:55:49.492Z,17.10
2022-07-29T00:58:16.461Z,16.40
2022-07-29T01:00:45.528Z,17.30
2022-07-29T01:03:12.709Z,16.40
2022-07-29T01:05:49.860Z,16.60
2022-07-29T01:08:19.379Z,16.80
2022-07-29T01:10:47.944Z,16.80
2022-07-29T01:13:16.857Z,16.60
2022-07-29T01:15:52.196Z,16.70
2022-07-29T01:18:31.436Z,16.50
2022-07-29T01:23:59.711Z,16.60
2022-07-29T01:26:46.451Z,16.40
2022-07-29T01:29:35.991Z,16.00
2022-07-29T01:32:18.239Z,16.40
2022-07-29T01:35:15.513Z,16.60
2022-07-29T01:37:48.098Z,16.60
2022-07-29T01:40:31.008Z,16.50
2022-07-29T01:43:01.350Z,16.60
2022-07-29T01:45:32.290Z,16.90
2022-07-29T01:48:07.826Z,17.00
2022-07-29T01:50:38.893Z,16.80
2022-07-29T01:53:10.368Z,16.80
2022-07-29T01:55:43.695Z,16.20
2022-07-29T01:58:13.170Z,16.70
2022-07-29T02:00:43.882Z,16.30
2022-07-29T02:03:13.057Z,16.30
2022-07-29T02:05:43.515Z,16.70
2022-07-29T02:08:12.142Z,16.20
2022-07-29T02:10:41.068Z,16.60
2022-07-29T02:13:10.608Z,16.10
2022-07-29T02:18:12.139Z,15.30
2022-07-29T02:20:41.146Z,16.00
2022-07-29T02:23:11.531Z,16.60
2022-07-29T02:25:38.943Z,16.10
2022-07-29T02:28:08.634Z,16.00
2022-07-29T02:30:41.199Z,16.30
2022-07-29T02:33:10.171Z,15.80
2022-07-29T02:35:38.199Z,15.80
2022-07-29T02:38:23.848Z,16.30
2022-07-29T02:40:52.997Z,15.80
2022-07-29T02:43:21.675Z,15.30
2022-07-29T02:45:54.251Z,15.30
2022-07-29T02:48:27.455Z,16.50
2022-07-29T02:51:00.716Z,15.70
2022-07-29T02:53:29.903Z,15.50
2022-07-29T02:56:17.538Z,15.80
2022-07-29T02:58:54.575Z,15.80
2022-07-29T03:01:26.040Z,16.30
2022-07-29T03:03:54.623Z,16.00
2022-07-29T03:06:28.154Z,16.20
2022-07-29T03:09:09.062Z,15.40
2022-07-29T03:11:49.198Z,15.90
2022-07-29T03:14:20.506Z,15.80
2022-07-29T03:16:49.248Z,16.20
2022-07-29T03:21:44.240Z,15.50
2022-07-29T03:24:11.344Z,15.70
2022-07-29T03:26:38.598Z,15.60
2022-07-29T03:29:05.554Z,15.80
2022-07-29T03:36:28.152Z,15.80
2022-07-29T03:38:55.721Z,16.00
2022-07-29T03:41:24.867Z,15.30
2022-07-29T03:43:54.283Z,15.70
2022-07-29T03:46:23.704Z,15.20
2022-07-29T03:48:57.684Z,15.70
2022-07-29T03:51:33.336Z,16.50
2022-07-29T03:54:07.669Z,15.50
2022-07-29T03:56:40.607Z,15.70
2022-07-29T03:59:09.430Z,15.70
2022-07-29T04:01:37.551Z,15.80
2022-07-29T04:04:05.839Z,16.20
2022-07-29T04:06:44.102Z,16.50
2022-07-29T04:09:11.791Z,16.00
2022-07-29T04:12:01.820Z,16.40
2022-07-29T04:14:27.667Z,15.90
2022-07-29T04:16:54.541Z,15.70
2022-07-29T04:19:21.503Z,16.30
2022-07-29T04:21:48.494Z,16.40
2022-07-29T04:24:15.779Z,16.30
2022-07-29T04:29:10.365Z,16.70
2022-07-29T04:34:04.817Z,16.50
2022-07-29T04:38:59.216Z,16.90
2022-07-29T04:46:34.878Z,16.70
2022-07-29T04:49:02.346Z,16.70
2022-07-29T04:51:29.570Z,16.60
2022-07-29T04:53:56.462Z,16.60
2022-07-29T04:56:23.388Z,17.00
2022-07-29T04:58:50.336Z,16.70
2022-07-29T05:01:17.758Z,16.70
2022-07-29T05:03:46.313Z,17.10
2022-07-29T05:11:12.007Z,16.80
2022-07-29T05:13:45.164Z,16.70
2022-07-29T05:16:12.609Z,17.00
2022-07-29T05:18:40.425Z,17.40
2022-07-29T05:23:34.628Z,17.90
2022-07-29T05:26:01.569Z,17.70
2022-07-29T05:28:28.452Z,17.10
2022-07-29T05:30:55.346Z,17.30
2022-07-29T05:36:07.691Z,17.20
2022-07-29T05:38:35.853Z,17.30
2022-07-29T05:45:58.131Z,17.80
2022-07-29T05:48:25.540Z,17.90
2022-07-29T05:50:52.498Z,17.80
2022-07-29T05:53:20.714Z,17.80
2022-07-29T05:55:48.936Z,18.00
2022-07-29T06:00:43.413Z,17.90
2022-07-29T06:03:10.434Z,19.20
2022-07-29T06:05:37.514Z,18.00
2022-07-29T06:08:08.285Z,18.20
2022-07-29T06:10:38.593Z,19.20
2022-07-29T06:13:05.728Z,18.90
2022-07-29T06:23:00.788Z,18.80
2022-07-29T06:25:30.455Z,18.80
2022-07-29T06:27:58.436Z,18.80
2022-07-29T06:30:25.366Z,19.00
2022-07-29T06:38:29.848Z,19.40
2022-07-29T06:41:23.206Z,19.30
2022-07-29T06:43:54.579Z,19.70
2022-07-29T06:46:24.033Z,19.70
2022-07-29T06:48:53.138Z,19.70
2022-07-29T06:51:22.713Z,19.70
2022-07-29T06:53:58.109Z,19.90
2022-07-29T06:58:54.426Z,19.60
2022-07-29T07:01:21.864Z,20.20
2022-07-29T07:03:49.059Z,20.30
2022-07-29T07:06:16.271Z,20.30
2022-07-29T07:08:43.181Z,20.70
2022-07-29T07:13:37.635Z,20.20
2022-07-29T07:16:05.391Z,20.80
2022-07-29T07:18:32.382Z,21.00
2022-07-29T07:20:59.808Z,21.70
2022-07-29T07:23:26.899Z,21.40
2022-07-29T07:25:53.916Z,21.50
2022-07-29T07:28:24.505Z,21.50
2022-07-29T07:30:52.773Z,22.00
2022-07-29T07:33:19.977Z,22.00
2022-07-29T07:35:47.468Z,22.40
2022-07-29T07:38:14.400Z,22.40
2022-07-29T07:40:42.073Z,22.90
2022-07-29T07:43:09.211Z,23.20
2022-07-29T07:48:06.033Z,23.60
2022-07-29T07:50:33.042Z,24.00
2022-07-29T08:03:17.053Z,25.00
2022-07-29T08:08:11.913Z,24.40
2022-07-29T08:10:53.797Z,24.60
2022-07-29T08:13:22.268Z,24.90
2022-07-29T08:15:58.648Z,25.10
2022-07-29T08:18:26.746Z,25.60
2022-07-29T08:20:54.171Z,25.30
2022-07-29T08:28:18.190Z,25.60
2022-07-29T08:33:13.102Z,25.90
2022-07-29T08:35:40.786Z,25.70
2022-07-29T08:38:07.806Z,25.60
2022-07-29T08:40:34.697Z,26.20
2022-07-29T08:43:08.715Z,26.40
2022-07-29T08:45:47.383Z,26.30
2022-07-29T08:48:16.458Z,26.40
2022-07-29T08:53:18.972Z,26.30
2022-07-29T08:55:48.974Z,26.30
2022-07-29T08:58:16.607Z,25.60
2022-07-29T09:00:52.196Z,26.30
2022-07-29T09:06:03.499Z,26.60
2022-07-29T09:08:32.325Z,26.90
2022-07-29T09:13:31.179Z,26.40
2022-07-29T09:18:37.008Z,26.80
2022-07-29T09:21:24.070Z,26.70
2022-07-29T09:24:11.938Z,26.90
2022-07-29T09:26:47.909Z,27.20
2022-07-29T09:29:24.499Z,27.10
2022-07-29T09:31:54.000Z,26.90
2022-07-29T09:34:29.845Z,26.80
2022-07-29T09:36:57.316Z,26.90
2022-07-29T09:39:51.211Z,27.60
2022-07-29T09:42:33.512Z,27.30
2022-07-29T09:45:00.492Z,27.80
2022-07-29T09:47:43.430Z,28.10
2022-07-29T09:50:10.327Z,28.20
2022-07-29T09:52:47.728Z,31.40
2022-07-29T09:55:18.061Z,28.10
2022-07-29T09:57:46.669Z,28.60
2022-07-29T10:00:19.091Z,29.40
2022-07-29T10:02:48.024Z,29.40
2022-07-29T10:05:22.074Z,29.20
2022-07-29T10:07:57.423Z,29.10
2022-07-29T10:10:32.152Z,29.20
2022-07-29T10:13:07.994Z,29.70
2022-07-29T10:15:42.053Z,29.20
2022-07-29T10:18:10.813Z,30.10
2022-07-29T10:20:38.810Z,30.20
2022-07-29T10:23:06.554Z,29.70
2022-07-29T10:33:15.275Z,31.20
2022-07-29T10:36:03.661Z,31.30
2022-07-29T10:39:04.392Z,31.40
2022-07-29T10:42:11.796Z,31.10
2022-07-29T10:44:43.061Z,31.70
2022-07-29T10:49:37.626Z,32.00
2022-07-29T10:52:10.694Z,32.30
2022-07-29T10:54:48.671Z,32.20
2022-07-29T10:57:53.324Z,32.40
2022-07-29T11:00:16.669Z,32.00
2022-07-29T11:02:46.330Z,32.60
2022-07-29T11:05:20.001Z,32.40
2022-07-29T11:11:34.883Z,31.80
2022-07-29T11:17:02.133Z,31.90
2022-07-29T11:19:30.483Z,32.50
2022-07-29T11:21:58.381Z,33.20
2022-07-29T11:24:29.985Z,33.10
2022-07-29T11:27:31.740Z,33.20
2022-07-29T11:30:04.762Z,33.40
2022-07-29T11:32:40.890Z,34.10
2022-07-29T11:35:17.695Z,33.80
2022-07-29T11:38:08.711Z,34.50
2022-07-29T11:40:38.718Z,33.80
2022-07-29T11:45:50.265Z,34.00
2022-07-29T11:48:28.383Z,33.90
2022-07-29T11:50:58.533Z,34.40
2022-07-29T11:56:16.416Z,34.30
2022-07-29T11:58:44.160Z,33.40
2022-07-29T12:01:17.917Z,33.40
2022-07-29T12:03:45.169Z,34.10
2022-07-29T12:06:18.303Z,33.80
2022-07-29T12:08:45.877Z,33.30
2022-07-29T12:11:22.740Z,33.00
2022-07-29T12:13:52.360Z,33.10
2022-07-29T12:16:25.911Z,33.20
2022-07-29T12:19:04.478Z,33.10
2022-07-29T12:21:53.937Z,33.50
2022-07-29T12:24:27.044Z,32.90
2022-07-29T12:27:00.763Z,33.60
2022-07-29T12:29:35.276Z,32.90
2022-07-29T12:32:04.781Z,33.50
2022-07-29T12:34:32.588Z,33.10
2022-07-29T12:36:59.762Z,33.30
2022-07-29T12:39:29.054Z,32.50
2022-07-29T12:44:50.750Z,33.10
2022-07-29T12:47:19.290Z,32.30
2022-07-29T12:49:46.829Z,31.70
2022-07-29T12:52:33.905Z,32.20
2022-07-29T12:55:02.013Z,30.90
2022-07-29T12:57:29.558Z,30.40
2022-07-29T13:00:24.239Z,30.70
2022-07-29T13:02:59.159Z,30.60
2022-07-29T13:05:47.173Z,30.90
2022-07-29T13:08:20.181Z,30.90
2022-07-29T13:10:49.070Z,30.70
2022-07-29T13:13:16.570Z,31.30
2022-07-29T13:15:50.374Z,31.20
2022-07-29T13:18:34.729Z,31.20
2022-07-29T13:21:16.214Z,31.50
2022-07-29T13:23:43.789Z,31.60
2022-07-29T13:26:17.522Z,31.70
2022-07-29T13:28:44.452Z,31.80
2022-07-29T13:31:11.881Z,30.80
2022-07-29T13:33:38.987Z,31.20
2022-07-29T13:36:06.089Z,30.70
2022-07-29T13:38:35.296Z,30.80
2022-07-29T13:41:02.850Z,30.70
2022-07-29T13:43:30.237Z,30.30
2022-07-29T13:45:57.374Z,30.30
2022-07-29T13:48:24.358Z,30.60
2022-07-29T13:50:51.280Z,29.80
2022-07-29T13:53:18.240Z,30.20
2022-07-29T13:55:45.553Z,30.70
2022-07-29T13:58:12.587Z,30.50
2022-07-29T14:00:39.490Z,30.20
2022-07-29T14:03:07.481Z,30.30
2022-07-29T14:05:34.448Z,30.10
2022-07-29T14:08:01.345Z,29.90
2022-07-29T14:10:28.398Z,29.70
2022-07-29T14:12:55.448Z,30.00
2022-07-29T14:15:22.473Z,30.30
2022-07-29T14:17:49.453Z,29.50
2022-07-29T14:20:17.173Z,29.20
2022-07-29T14:22:45.092Z,29.50
2022-07-29T14:25:14.424Z,29.10
2022-07-29T14:27:43.682Z,28.80
2022-07-29T14:30:11.462Z,29.30
2022-07-29T14:32:38.809Z,28.70
2022-07-29T14:35:07.174Z,28.60
2022-07-29T14:37:37.650Z,28.10
2022-07-29T14:40:08.507Z,28.10
2022-07-29T14:42:35.443Z,28.10
2022-07-29T14:45:02.341Z,28.20
2022-07-29T14:47:29.235Z,28.20
2022-07-29T14:49:56.152Z,28.00
2022-07-29T14:52:23.059Z,28.40
2022-07-29T14:54:50.172Z,28.50
2022-07-29T14:57:17.547Z,28.80
2022-07-29T14:59:44.522Z,28.80
2022-07-29T15:04:40.340Z,28.30
2022-07-29T15:07:07.262Z,28.40
2022-07-29T15:09:40.107Z,28.20
2022-07-29T15:12:08.030Z,28.50
2022-07-29T15:14:34.965Z,28.30
2022-07-29T15:17:01.886Z,28.30
2022-07-29T15:19:31.643Z,27.80
2022-07-29T15:21:59.797Z,27.50
2022-07-29T15:24:26.905Z,27.60
2022-07-29T15:26:54.823Z,27.80
2022-07-29T15:29:22.366Z,27.90
2022-07-29T15:31:49.404Z,27.90
2022-07-29T15:34:16.519Z,27.30
2022-07-29T15:36:52.834Z,27.30
2022-07-29T15:39:21.345Z,27.30
2022-07-29T15:41:48.723Z,27.40
2022-07-29T15:44:15.631Z,27.20
2022-07-29T15:47:01.817Z,27.20
2022-07-29T15:49:46.325Z,26.90
2022-07-29T15:52:17.797Z,26.80
2022-07-29T15:54:44.710Z,26.60
2022-07-29T15:57:11.666Z,26.60
2022-07-29T15:59:38.857Z,26.70
2022-07-29T16:02:05.925Z,26.70
2022-07-29T16:04:32.850Z,26.60
2022-07-29T16:07:00.323Z,27.00
2022-07-29T16:09:28.904Z,27.00
2022-07-29T16:11:56.732Z,27.00
2022-07-29T16:14:23.809Z,27.10
2022-07-29T16:16:56.358Z,27.10
2022-07-29T16:19:23.731Z,27.00
2022-07-29T16:21:50.713Z,27.00
2022-07-29T16:24:18.276Z,27.10
2022-07-29T16:26:45.229Z,27.10
2022-07-29T16:29:12.164Z,27.20
2022-07-29T16:31:39.188Z,27.20
2022-07-29T16:34:06.294Z,27.10
2022-07-29T16:36:33.210Z,27.10
2022-07-29T16:39:00.105Z,27.30
2022-07-29T16:41:27.206Z,26.70
2022-07-29T16:43:55.369Z,26.80
2022-07-29T16:46:22.426Z,26.80
2022-07-29T16:48:51.566Z,26.60
2022-07-29T16:51:19.086Z,26.40
2022-07-29T16:53:46.087Z,26.20
2022-07-29T16:56:16.849Z,26.00
2022-07-29T16:58:44.178Z,25.90
2022-07-29T17:01:11.853Z,25.60
2022-07-29T17:04:00.368Z,25.60
2022-07-29T17:06:29.610Z,25.60
2022-07-29T17:08:57.219Z,25.40
2022-07-29T17:11:53.358Z,25.30
2022-07-29T17:14:11.671Z,25.30
2022-07-29T17:16:38.620Z,25.20
2022-07-29T17:19:05.640Z,25.20
2022-07-29T17:21:32.586Z,25.00
2022-07-29T17:23:59.590Z,25.00
2022-07-29T17:26:27.630Z,24.90
2022-07-29T17:28:55.254Z,24.90
2022-07-29T17:31:22.467Z,24.80
2022-07-29T17:33:49.537Z,24.70
2022-07-29T17:36:25.603Z,24.60
2022-07-29T17:38:54.882Z,24.60
2022-07-29T17:41:22.657Z,24.60
2022-07-29T17:43:50.174Z,24.50
2022-07-29T17:46:17.810Z,24.30
2022-07-29T17:48:45.316Z,24.10
2022-07-29T17:51:13.191Z,24.00
2022-07-29T17:53:40.278Z,24.00
2022-07-29T17:56:07.689Z,24.10
2022-07-29T17:58:34.893Z,24.00
2022-07-29T18:01:01.917Z,24.00
2022-07-29T18:03:28.926Z,23.80
2022-07-29T18:05:55.924Z,23.70
2022-07-29T18:08:22.831Z,23.70
2022-07-29T18:10:50.586Z,23.70
2022-07-29T18:13:18.026Z,23.60
2022-07-29T18:15:46.316Z,23.50
2022-07-29T18:18:14.620Z,23.50
2022-07-29T18:20:43.541Z,23.30
2022-07-29T18:23:10.811Z,23.30
2022-07-29T18:25:39.029Z,23.30
2022-07-29T18:28:06.857Z,23.20
2022-07-29T18:30:36.810Z,23.10
2022-07-29T18:33:20.805Z,23.10
2022-07-29T18:35:50.195Z,23.00
2022-07-29T18:38:17.386Z,22.90
2022-07-29T18:40:45.908Z,22.80
2022-07-29T18:43:13.923Z,22.70
2022-07-29T18:45:42.601Z,22.80
2022-07-29T18:48:12.785Z,22.70
2022-07-29T18:50:40.545Z,22.80
2022-07-29T18:53:07.712Z,22.70
2022-07-29T18:55:35.379Z,22.70
2022-07-29T18:58:02.398Z,22.60
2022-07-29T19:00:30.614Z,22.60
2022-07-29T19:02:57.678Z,22.60
2022-07-29T19:05:25.056Z,22.60
2022-07-29T19:07:52.112Z,22.60
2022-07-29T19:10:19.035Z,22.60
2022-07-29T19:12:46.075Z,22.50
2022-07-29T19:15:13.068Z,22.40
2022-07-29T19:17:48.076Z,22.40
2022-07-29T19:20:15.918Z,22.50
2022-07-29T19:22:42.911Z,22.30
2022-07-29T19:25:10.205Z,22.30
2022-07-29T19:27:37.174Z,22.30
2022-07-29T19:30:06.835Z,22.30
2022-07-29T19:32:34.144Z,22.30
2022-07-29T19:35:19.767Z,22.30
2022-07-29T19:37:46.673Z,22.20
2022-07-29T19:40:13.618Z,22.20
2022-07-29T19:42:40.530Z,22.00
2022-07-29T19:45:07.878Z,22.10
2022-07-29T19:47:34.791Z,22.00
2022-07-29T19:50:02.362Z,22.10
2022-07-29T19:52:29.348Z,21.90
2022-07-29T19:54:56.316Z,21.90
2022-07-29T19:57:23.340Z,21.90
2022-07-29T19:59:51.234Z,21.80
2022-07-29T20:02:18.281Z,21.80
2022-07-29T20:04:45.430Z,21.80
2022-07-29T20:07:13.398Z,21.80
2022-07-29T20:09:40.974Z,21.70
2022-07-29T20:12:09.081Z,21.60
2022-07-29T20:14:36.694Z,21.60
2022-07-29T20:17:04.464Z,21.50
2022-07-29T20:19:32.931Z,21.50
2022-07-29T20:22:00.293Z,21.60
2022-07-29T20:24:27.476Z,21.60
2022-07-29T20:26:54.364Z,21.50
2022-07-29T20:29:21.589Z,21.40
2022-07-29T20:31:53.457Z,21.40
2022-07-29T20:34:24.387Z,21.40
2022-07-29T20:36:51.286Z,21.20
2022-07-29T20:39:18.340Z,21.30
2022-07-29T20:41:45.230Z,21.20
2022-07-29T20:44:12.133Z,21.20
2022-07-29T20:46:42.045Z,21.20
2022-07-29T20:49:09.028Z,21.20
2022-07-29T20:51:43.407Z,21.10
2022-07-29T20:54:10.962Z,21.20
2022-07-29T20:56:38.227Z,21.20
2022-07-29T20:59:05.229Z,21.10
2022-07-29T21:01:32.303Z,21.00
2022-07-29T21:04:00.393Z,20.90
2022-07-29T21:06:27.355Z,20.90
2022-07-29T21:08:55.876Z,20.80
2022-07-29T21:11:43.602Z,20.80
2022-07-29T21:14:09.807Z,20.70
2022-07-29T21:16:38.533Z,20.70
2022-07-29T21:19:05.414Z,20.70
2022-07-29T21:21:32.453Z,20.60
2022-07-29T21:23:59.515Z,20.60
2022-07-29T21:26:26.447Z,20.50
2022-07-29T21:28:53.408Z,20.60
2022-07-29T21:31:20.278Z,20.60
2022-07-29T21:33:47.751Z,20.70
2022-07-29T21:36:46.365Z,20.60
2022-07-29T21:39:07.045Z,20.40
2022-07-29T21:41:34.634Z,20.40
2022-07-29T21:44:01.663Z,20.30
2022-07-29T21:46:28.671Z,20.40
2022-07-29T21:48:56.068Z,20.40
2022-07-29T21:51:23.003Z,20.40
2022-07-29T21:53:50.640Z,20.30
2022-07-29T21:56:20.059Z,20.20
2022-07-29T21:58:49.441Z,20.20
2022-07-29T22:01:16.392Z,20.10
2022-07-29T22:03:43.443Z,20.10
2022-07-29T22:06:11.303Z,20.10
2022-07-29T22:08:45.822Z,20.10
2022-07-29T22:11:13.620Z,20.10
2022-07-29T22:13:40.702Z,20.10
2022-07-29T22:16:10.177Z,20.10
2022-07-29T22:18:37.027Z,20.20
2022-07-29T22:21:04.056Z,20.20
2022-07-29T22:23:31.121Z,20.20
2022-07-29T22:25:58.146Z,20.10
2022-07-29T22:28:25.072Z,20.00
2022-07-29T22:30:52.358Z,19.90
2022-07-29T22:33:19.281Z,19.80
2022-07-29T22:35:48.851Z,19.90
2022-07-29T22:38:19.522Z,19.90
2022-07-29T22:40:48.514Z,20.00
2022-07-29T22:43:15.667Z,20.00
2022-07-29T22:45:42.722Z,20.10
2022-07-29T22:48:10.587Z,20.10
2022-07-29T22:50:38.435Z,20.10
2022-07-29T22:53:05.714Z,20.10
2022-07-29T22:55:32.639Z,20.00
2022-07-29T22:57:59.558Z,19.90
2022-07-29T23:00:26.591Z,20.00
2022-07-29T23:02:53.471Z,19.90
2022-07-29T23:05:20.419Z,20.10
2022-07-29T23:07:47.432Z,20.00
2022-07-29T23:10:14.381Z,20.10
2022-07-29T23:12:41.263Z,19.90
2022-07-29T23:15:08.319Z,19.90
2022-07-29T23:17:36.679Z,19.90
2022-07-29T23:20:06.620Z,19.90
2022-07-29T23:22:34.009Z,19.90
2022-07-29T23:25:01.044Z,19.90
2022-07-29T23:27:28.013Z,19.80
2022-07-29T23:29:54.900Z,19.80
2022-07-29T23:32:21.784Z,19.70
2022-07-29T23:34:48.679Z,19.70
2022-07-29T23:37:15.975Z,19.60
2022-07-29T23:39:43.223Z,19.70
2022-07-29T23:42:10.117Z,19.70
2022-07-29T23:44:37.030Z,19.70
2022-07-29T23:47:04.203Z,19.70
2022-07-29T23:49:31.348Z,19.60
2022-07-29T23:51:58.313Z,19.60
2022-07-29T23:54:25.237Z,19.70
2022-07-29T23:56:52.151Z,19.60
2022-07-29T23:59:19.105Z,19.70
